Appleton, Illinois
Current Conditions -  °F | °C
As of 4:35 AM on Friday 31 Oct 2014 (Local Time) from KGBG Reporting Station
Overcast Overcast  
Wind Chill: 31°   Ceiling: 4900
Heat Index: 41°   Visibility: 10mi
Dew Point: 25°   Wind: 21mph
Humidity: 53%   Direction: 320°NW
Pressure: 30.16"   Gusts: 30mph
Location:  40.9602°N, 90.1517°W
Report Text: KGBG 310935Z AUTO 32018G26KT 10SM OVC049 05/M04 A3016 RMK AO2 T00491039
Loading
Personal Weather Stations






























Interactive Weather Map
Tropical Storm Tracking
New forecast layout! Learn more

10-Day Weather Forecast

Advertisements
Track Severe Weather on mobile